Погода Гуарараписна неделю

Сан-Паулу, Бразилия

23 - 29 июля
  • 23июля
    Сегодня
    +17°
    +32°
    Ясно и безоблачно
    ВремяПогодаТемператураВлажностьДавлениеВетер, м/сВероятность осадков
    00:00Ясно и безоблачно+21°C41 %730 мм2.8 м/с5 %
    03:00Ясно и безоблачно+19°C50 %730 мм3.1 м/с5 %
    06:00Ясно и безоблачно+19°C58 %730 мм4.4 м/с5 %
    09:00Ясно и безоблачно+22°C51 %732 мм3.4 м/с5 %
    12:00Ясно и безоблачно+30°C26 %732 мм4.6 м/с5 %
    15:00Ясно и безоблачно+31°C19 %730 мм3.0 м/с5 %
    18:00Ясно и безоблачно+28°C26 %729 мм2.0 м/с5 %
    21:00Ясно и безоблачно+25°C30 %730 мм2.9 м/с5 %
  • 24июля
    Среда
    +17°
    +33°
    Облачно с прояснениями
    ВремяПогодаТемператураВлажностьДавлениеВетер, м/сВероятность осадков
    00:00Ясно и безоблачно+22°C38 %730 мм3.4 м/с5 %
    03:00Практически безоблачно+19°C48 %729 мм4.0 м/с5 %
    06:00Ясно и безоблачно+18°C54 %729 мм4.0 м/с5 %
    09:00Ясно и безоблачно+21°C43 %731 мм3.7 м/с5 %
    12:00Небольшая облачность+30°C24 %732 мм3.4 м/с5 %
    15:00Облачно с прояснениями+32°C21 %729 мм2.4 м/с5 %
    18:00Ясно и безоблачно+30°C23 %729 мм1.7 м/с5 %
    21:00Небольшая облачность+24°C34 %729 мм2.4 м/с5 %
  • 25июля
    Четверг
    +18°
    +33°
    Ясно и безоблачно
    ВремяПогодаТемператураВлажностьДавлениеВетер, м/сВероятность осадков
    00:00Небольшая облачность+22°C38 %730 мм3.0 м/с5 %
    03:00Ясно и безоблачно+19°C50 %728 мм2.2 м/с5 %
    06:00Ясно и безоблачно+18°C59 %728 мм2.5 м/с5 %
    09:00Ясно и безоблачно+21°C44 %730 мм2.3 м/с5 %
    12:00Ясно и безоблачно+31°C26 %731 мм3.0 м/с5 %
    15:00Ясно и безоблачно+32°C21 %728 мм1.6 м/с5 %
    18:00Ясно и безоблачно+29°C27 %727 мм2.2 м/с5 %
    21:00Ясно и безоблачно+26°C33 %728 мм2.2 м/с5 %
  • 26июля
    Пятница
    +19°
    +33°
    Облачно с прояснениями
    ВремяПогодаТемператураВлажностьДавлениеВетер, м/сВероятность осадков
    00:00Небольшая облачность+22°C41 %727 мм2.1 м/с5 %
    03:00Облачно с прояснениями+20°C51 %726 мм2.5 м/с5 %
    06:00Облачно с прояснениями+20°C50 %727 мм2.8 м/с5 %
    09:00Облачно с прояснениями+22°C45 %729 мм3.1 м/с5 %
    12:00Облачно с прояснениями+31°C22 %729 мм3.6 м/с5 %
    15:00Облачно с прояснениями+32°C19 %727 мм2.8 м/с5 %
    18:00Облачно с прояснениями+31°C22 %727 мм1.1 м/с5 %
    21:00Облачно с прояснениями+26°C29 %728 мм2.5 м/с5 %
  • 27июля
    Суббота
    +18°
    +34°
    Ясно и безоблачно
    ВремяПогодаТемператураВлажностьДавлениеВетер, м/сВероятность осадков
    00:00Облачно с прояснениями+24°C33 %728 мм2.5 м/с5 %
    03:00Облачно с прояснениями+21°C37 %727 мм2.6 м/с5 %
    06:00Облачно с прояснениями+20°C46 %727 мм3.2 м/с5 %
    09:00Практически безоблачно+23°C42 %729 мм3.2 м/с5 %
    12:00Ясно и безоблачно+32°C22 %729 мм3.5 м/с5 %
    15:00Ясно и безоблачно+33°C17 %727 мм2.3 м/с5 %
    18:00Ясно и безоблачно+30°C23 %727 мм1.0 м/с5 %
    21:00Ясно и безоблачно+25°C28 %728 мм1.8 м/с5 %
Мы используем cookies
Соглашаюсь